Archival Weather

Tokyo Intl

Tokyo, Japan (RJTT)

Report from: Friday, September 22, 2023 11:00 AM JST
Current time: Saturday, February 24, 2024 11:55 PM JST

Current weather – Weather history – Daily summaries
Weather forecast

Temperature28.0°C (82.4°F)
Heat index32.0°C (89.6°F)
Dew point24.0°C (75.2°F)
Winds 5 kts (2.6 m/s, 5.8 mph) Vrb
Winds variableWinds variable from West-Southwest (240°) to North (359.999999°)
Visibility6.2 mi. (10 km)
Clouds Few clouds 2,000 ft. (610 m)
Ceiling: Broken clouds 13,000 ft. (3,962 m)
Altimeter29.83 in.Hg (1010 mB)
Relative humidity79 %
Density altitude2,005 ft. (611 m)
Remarks No significant changes expected in the next two hours
Flight conditions Visual Meteorological Conditions
Raw dataRJTT 220200Z 29005KT 240V360 9999 FEW020 BKN130 28/24 Q1010 NOSIG
An error has occurred. This application may no longer respond until reloaded. Reload 🗙